createdAt,value
2022-11-15T00:01:30.980Z,2.58
2022-11-15T00:03:59.729Z,2.80
2022-11-15T00:06:28.594Z,3.35
2022-11-15T00:09:01.820Z,2.50
2022-11-15T00:11:30.595Z,3.60
2022-11-15T00:14:00.252Z,3.35
2022-11-15T00:16:29.058Z,3.40
2022-11-15T00:18:57.522Z,3.50
2022-11-15T00:21:26.308Z,3.15
2022-11-15T00:23:55.105Z,3.35
2022-11-15T00:26:23.598Z,4.25
2022-11-15T00:28:55.433Z,4.82
2022-11-15T00:31:24.210Z,3.95
2022-11-15T00:33:52.939Z,3.80
2022-11-15T00:36:21.777Z,3.92
2022-11-15T00:38:49.854Z,3.47
2022-11-15T00:41:18.632Z,4.00
2022-11-15T00:43:47.474Z,3.88
2022-11-15T00:46:16.231Z,4.18
2022-11-15T00:48:44.979Z,3.92
2022-11-15T00:51:13.837Z,4.20
2022-11-15T00:53:42.638Z,3.80
2022-11-15T00:56:11.803Z,3.92
2022-11-15T00:58:40.525Z,3.90
2022-11-15T01:01:14.589Z,4.53
2022-11-15T01:03:44.121Z,5.03
2022-11-15T01:06:14.144Z,5.60
2022-11-15T01:08:43.118Z,4.95
2022-11-15T01:11:14.293Z,6.47
2022-11-15T01:13:43.146Z,6.20
2022-11-15T01:16:17.565Z,5.65
2022-11-15T01:18:46.809Z,5.70
2022-11-15T01:21:21.454Z,6.07
2022-11-15T01:23:50.253Z,5.50
2022-11-15T01:26:19.102Z,6.28
2022-11-15T01:28:47.935Z,6.47
2022-11-15T01:31:21.996Z,6.35
2022-11-15T01:33:51.114Z,6.50
2022-11-15T01:36:24.092Z,6.15
2022-11-15T01:38:57.397Z,5.60
2022-11-15T01:41:31.462Z,5.82
2022-11-15T01:44:38.344Z,5.63
2022-11-15T01:47:36.222Z,5.80
2022-11-15T01:50:15.665Z,4.97
2022-11-15T01:52:45.367Z,6.07
2022-11-15T01:55:28.041Z,5.30
2022-11-15T01:58:00.915Z,5.20
2022-11-15T02:00:29.998Z,5.13
2022-11-15T02:02:58.533Z,4.80
2022-11-15T02:05:27.788Z,4.93
2022-11-15T02:07:56.768Z,5.60
2022-11-15T02:10:26.663Z,4.40
2022-11-15T02:12:55.892Z,5.13
2022-11-15T02:15:27.347Z,3.90
2022-11-15T02:18:10.313Z,4.45
2022-11-15T02:20:45.923Z,4.23
2022-11-15T02:23:34.252Z,4.93
2022-11-15T02:26:17.850Z,4.20
2022-11-15T02:29:01.655Z,3.97
2022-11-15T02:32:09.418Z,4.35
2022-11-15T02:34:53.868Z,4.10
2022-11-15T02:37:22.572Z,3.38
2022-11-15T02:40:10.029Z,3.53
2022-11-15T02:43:05.617Z,3.00
2022-11-15T02:45:42.619Z,3.38
2022-11-15T02:48:12.459Z,2.90
2022-11-15T02:50:41.451Z,3.03
2022-11-15T02:53:10.319Z,3.05
2022-11-15T02:55:41.731Z,3.30
2022-11-15T02:58:26.781Z,3.15
2022-11-15T03:01:03.058Z,3.20
2022-11-15T03:04:03.170Z,3.10
2022-11-15T03:06:40.632Z,2.60
2022-11-15T03:09:28.670Z,3.30
2022-11-15T03:12:05.922Z,3.60
2022-11-15T03:14:43.749Z,3.10
2022-11-15T03:17:30.055Z,2.90
2022-11-15T03:20:03.350Z,3.03
2022-11-15T03:22:36.355Z,2.63
2022-11-15T03:25:12.063Z,3.20
2022-11-15T03:27:45.130Z,2.88
2022-11-15T03:30:15.799Z,3.22
2022-11-15T03:33:00.590Z,3.75
2022-11-15T03:35:37.047Z,4.55
2022-11-15T03:38:24.795Z,4.55
2022-11-15T03:41:13.247Z,5.10
2022-11-15T03:43:50.301Z,4.43
2022-11-15T03:46:57.377Z,5.18
2022-11-15T03:49:32.438Z,5.00
2022-11-15T03:52:02.055Z,4.88
2022-11-15T03:54:34.049Z,5.13
2022-11-15T03:57:02.991Z,5.25
2022-11-15T03:59:31.409Z,5.35
2022-11-15T04:02:00.276Z,4.43
2022-11-15T04:04:29.324Z,5.20
2022-11-15T04:06:58.296Z,4.18
2022-11-15T04:09:27.386Z,4.20
2022-11-15T04:11:56.597Z,4.70
2022-11-15T04:14:25.114Z,4.50
2022-11-15T04:16:54.018Z,5.10
2022-11-15T04:19:45.983Z,5.05
2022-11-15T04:22:32.756Z,3.97
2022-11-15T04:25:01.692Z,4.78
2022-11-15T04:27:30.132Z,5.30
2022-11-15T04:30:00.110Z,4.57
2022-11-15T04:32:30.048Z,4.18
2022-11-15T04:34:59.526Z,4.60
2022-11-15T04:37:28.448Z,5.00
2022-11-15T04:40:00.384Z,4.53
2022-11-15T04:42:29.333Z,4.15
2022-11-15T04:44:58.512Z,4.50
2022-11-15T04:47:30.939Z,4.70
2022-11-15T04:50:01.857Z,4.03
2022-11-15T04:52:30.695Z,4.20
2022-11-15T04:55:03.596Z,4.45
2022-11-15T04:57:35.743Z,4.03
2022-11-15T05:00:14.354Z,4.13
2022-11-15T05:03:02.469Z,4.10
2022-11-15T05:05:30.994Z,4.03
2022-11-15T05:07:59.334Z,4.45
2022-11-15T05:10:28.286Z,3.75
2022-11-15T05:12:57.073Z,4.25
2022-11-15T05:15:25.873Z,4.10
2022-11-15T05:18:01.467Z,5.00
2022-11-15T05:20:29.877Z,3.80
2022-11-15T05:22:58.554Z,3.80
2022-11-15T05:25:27.621Z,3.22
2022-11-15T05:27:56.554Z,3.15
2022-11-15T05:30:25.393Z,3.63
2022-11-15T05:32:54.348Z,4.43
2022-11-15T05:35:44.082Z,4.05
2022-11-15T05:38:12.654Z,4.07
2022-11-15T05:40:41.546Z,4.47
2022-11-15T05:43:10.488Z,4.05
2022-11-15T05:45:39.791Z,4.75
2022-11-15T05:48:10.052Z,4.45
2022-11-15T05:50:41.013Z,3.72
2022-11-15T05:53:10.158Z,4.18
2022-11-15T05:55:40.948Z,3.85
2022-11-15T05:58:10.442Z,4.05
2022-11-15T06:00:39.598Z,4.13
2022-11-15T06:03:08.719Z,3.60
2022-11-15T06:05:37.714Z,4.22
2022-11-15T06:08:06.678Z,4.00
2022-11-15T06:10:36.158Z,3.63
2022-11-15T06:13:06.821Z,3.60
2022-11-15T06:15:36.945Z,3.78
2022-11-15T06:18:06.855Z,3.70
2022-11-15T06:20:35.804Z,3.92
2022-11-15T06:23:06.787Z,3.45
2022-11-15T06:25:35.791Z,3.83
2022-11-15T06:28:04.629Z,4.00
2022-11-15T06:30:33.583Z,3.83
2022-11-15T06:33:10.183Z,3.90
2022-11-15T06:35:39.574Z,3.72
2022-11-15T06:38:11.887Z,3.78
2022-11-15T06:40:41.970Z,4.10
2022-11-15T06:43:10.782Z,4.15
2022-11-15T06:45:39.611Z,3.63
2022-11-15T06:48:08.857Z,3.97
2022-11-15T06:50:37.751Z,4.20
2022-11-15T06:53:06.806Z,3.55
2022-11-15T06:55:36.706Z,4.63
2022-11-15T06:58:05.410Z,3.70
2022-11-15T07:00:34.462Z,4.00
2022-11-15T07:03:03.817Z,4.35
2022-11-15T07:05:32.894Z,4.45
2022-11-15T07:08:02.080Z,4.57
2022-11-15T07:10:34.149Z,4.10
2022-11-15T07:13:02.961Z,3.85
2022-11-15T07:15:31.580Z,4.30
2022-11-15T07:18:07.176Z,4.78
2022-11-15T07:20:36.015Z,4.80
2022-11-15T07:23:08.304Z,4.85
2022-11-15T07:25:38.283Z,4.20
2022-11-15T07:28:07.315Z,4.35
2022-11-15T07:30:40.048Z,4.22
2022-11-15T07:33:12.921Z,4.35
2022-11-15T07:35:41.796Z,3.97
2022-11-15T07:38:10.821Z,4.97
2022-11-15T07:40:40.759Z,4.30
2022-11-15T07:43:12.060Z,4.18
2022-11-15T07:45:48.030Z,4.60
2022-11-15T07:48:16.882Z,5.15
2022-11-15T07:50:45.534Z,4.10
2022-11-15T07:53:14.515Z,5.05
2022-11-15T07:55:44.179Z,4.38
2022-11-15T07:58:14.653Z,4.30
2022-11-15T08:00:43.196Z,4.40
2022-11-15T08:03:17.569Z,5.65
2022-11-15T08:05:53.180Z,4.80
2022-11-15T08:08:23.140Z,4.20
2022-11-15T08:10:51.979Z,4.43
2022-11-15T08:13:20.926Z,4.90
2022-11-15T08:15:53.494Z,4.57
2022-11-15T08:18:26.283Z,4.93
2022-11-15T08:20:56.187Z,4.47
2022-11-15T08:23:25.155Z,4.72
2022-11-15T08:25:53.663Z,4.55
2022-11-15T08:28:24.352Z,4.38
2022-11-15T08:30:53.219Z,5.30
2022-11-15T08:33:22.093Z,4.85
2022-11-15T08:35:51.425Z,5.43
2022-11-15T08:38:20.280Z,4.40
2022-11-15T08:40:49.117Z,4.97
2022-11-15T08:43:18.010Z,4.28
2022-11-15T08:45:47.449Z,5.28
2022-11-15T08:48:16.240Z,5.43
2022-11-15T08:50:45.949Z,5.10
2022-11-15T08:53:16.883Z,4.75
2022-11-15T08:55:45.721Z,5.47
2022-11-15T08:58:14.576Z,4.88
2022-11-15T09:00:43.415Z,5.03
2022-11-15T09:03:11.973Z,5.47
2022-11-15T09:05:41.078Z,5.45
2022-11-15T09:08:40.447Z,5.05
2022-11-15T09:10:59.662Z,4.63
2022-11-15T09:13:28.146Z,4.63
2022-11-15T09:16:01.332Z,5.15
2022-11-15T09:18:30.613Z,4.68
2022-11-15T09:21:00.721Z,4.88
2022-11-15T09:23:30.875Z,5.97
2022-11-15T09:26:06.844Z,5.30
2022-11-15T09:28:36.642Z,4.95
2022-11-15T09:31:08.031Z,4.63
2022-11-15T09:33:37.110Z,5.10
2022-11-15T09:36:09.570Z,4.95
2022-11-15T09:38:38.616Z,5.15
2022-11-15T09:41:16.137Z,4.60
2022-11-15T09:44:26.035Z,4.90
2022-11-15T09:46:54.964Z,4.57
2022-11-15T09:49:24.497Z,4.72
2022-11-15T09:51:56.114Z,5.50
2022-11-15T09:54:55.585Z,4.88
2022-11-15T09:57:34.618Z,4.53
2022-11-15T10:03:23.543Z,4.90
2022-11-15T10:05:56.823Z,4.55
2022-11-15T10:08:44.211Z,4.28
2022-11-15T10:14:06.092Z,4.85
2022-11-15T10:16:42.569Z,4.40
2022-11-15T10:19:17.225Z,4.30
2022-11-15T10:21:56.022Z,4.35
2022-11-15T10:24:30.601Z,4.30
2022-11-15T10:26:59.575Z,4.72
2022-11-15T10:29:28.729Z,4.53
2022-11-15T10:31:57.594Z,4.97
2022-11-15T10:34:27.419Z,4.40
2022-11-15T10:37:02.244Z,4.10
2022-11-15T10:39:32.114Z,4.53
2022-11-15T10:42:03.866Z,3.80
2022-11-15T10:44:35.807Z,3.78
2022-11-15T10:47:08.689Z,3.72
2022-11-15T10:49:37.920Z,4.22
2022-11-15T10:52:24.800Z,4.32
2022-11-15T10:55:02.684Z,3.38
2022-11-15T10:57:40.808Z,3.75
2022-11-15T11:00:33.768Z,4.10
2022-11-15T11:03:05.889Z,4.30
2022-11-15T11:05:42.737Z,4.15
2022-11-15T11:08:15.005Z,4.40
2022-11-15T11:11:02.645Z,4.20
2022-11-15T11:13:32.903Z,3.65
2022-11-15T11:16:16.896Z,3.38
2022-11-15T11:19:18.935Z,4.07
2022-11-15T11:22:23.767Z,4.28
2022-11-15T11:25:26.038Z,3.45
2022-11-15T11:28:09.565Z,3.78
2022-11-15T11:30:55.820Z,3.72
2022-11-15T11:33:30.584Z,3.80
2022-11-15T11:36:20.705Z,3.83
2022-11-15T11:39:08.537Z,3.67
2022-11-15T11:41:40.040Z,3.28
2022-11-15T11:44:32.117Z,3.30
2022-11-15T11:47:13.625Z,3.20
2022-11-15T11:49:48.433Z,3.67
2022-11-15T11:52:25.081Z,3.92
2022-11-15T11:55:15.009Z,3.65
2022-11-15T11:58:04.071Z,3.40
2022-11-15T12:00:36.905Z,3.78
2022-11-15T12:03:08.157Z,3.72
2022-11-15T12:05:53.182Z,3.65
2022-11-15T12:08:49.330Z,3.42
2022-11-15T12:11:45.725Z,3.78
2022-11-15T12:14:25.171Z,3.45
2022-11-15T12:16:54.934Z,3.63
2022-11-15T12:19:23.778Z,3.40
2022-11-15T12:22:13.936Z,3.55
2022-11-15T12:24:46.693Z,3.70
2022-11-15T12:28:05.940Z,3.50
2022-11-15T12:31:13.641Z,3.53
2022-11-15T12:33:47.063Z,3.17
2022-11-15T12:36:24.529Z,3.22
2022-11-15T12:39:06.371Z,3.03
2022-11-15T12:41:35.802Z,3.22
2022-11-15T12:44:05.251Z,3.60
2022-11-15T12:46:34.103Z,3.33
2022-11-15T12:49:14.174Z,3.45
2022-11-15T12:51:45.691Z,3.10
2022-11-15T12:54:26.604Z,3.20
2022-11-15T12:57:10.214Z,2.88
2022-11-15T13:00:05.793Z,3.05
2022-11-15T13:02:37.254Z,3.10
2022-11-15T13:05:18.671Z,3.33
2022-11-15T13:07:47.507Z,3.40
2022-11-15T13:10:16.626Z,2.88
2022-11-15T13:12:49.067Z,3.10
2022-11-15T13:15:24.378Z,3.22
2022-11-15T13:17:57.684Z,3.40
2022-11-15T13:20:28.421Z,2.83
2022-11-15T13:23:13.396Z,2.92
2022-11-15T13:26:01.117Z,2.60
2022-11-15T13:28:32.319Z,2.80
2022-11-15T13:31:03.231Z,2.65
2022-11-15T13:33:40.058Z,2.47
2022-11-15T13:36:18.870Z,2.80
2022-11-15T13:38:47.589Z,2.95
2022-11-15T13:41:25.326Z,2.75
2022-11-15T13:43:55.807Z,2.85
2022-11-15T13:46:36.463Z,5.47
2022-11-15T13:49:13.908Z,3.60
2022-11-15T13:51:45.604Z,3.65
2022-11-15T13:54:33.765Z,2.70
2022-11-15T13:57:06.752Z,2.88
2022-11-15T13:59:46.993Z,2.80
2022-11-15T14:02:18.600Z,2.90
2022-11-15T14:04:59.295Z,2.70
2022-11-15T14:07:31.236Z,3.05
2022-11-15T14:10:00.140Z,3.15
2022-11-15T14:12:37.075Z,2.80
2022-11-15T14:15:35.671Z,2.78
2022-11-15T14:18:04.826Z,2.70
2022-11-15T14:20:36.415Z,3.00
2022-11-15T14:23:22.386Z,2.97
2022-11-15T14:25:59.630Z,2.85
2022-11-15T14:28:27.736Z,3.33
2022-11-15T14:30:58.959Z,3.05
2022-11-15T14:33:36.489Z,3.20
2022-11-15T14:36:16.952Z,2.67
2022-11-15T14:38:45.836Z,2.72
2022-11-15T14:41:26.508Z,2.83
2022-11-15T14:43:56.023Z,3.33
2022-11-15T14:46:24.718Z,2.60
2022-11-15T14:48:53.562Z,2.70
2022-11-15T14:51:25.753Z,2.70
2022-11-15T14:53:54.519Z,2.92
2022-11-15T14:56:23.693Z,2.85
2022-11-15T14:58:52.813Z,2.88
2022-11-15T15:01:25.783Z,2.53
2022-11-15T15:03:58.232Z,2.83
2022-11-15T15:06:27.572Z,2.55
2022-11-15T15:08:55.982Z,2.40
2022-11-15T15:11:30.920Z,2.78
2022-11-15T15:14:02.439Z,2.60
2022-11-15T15:16:31.412Z,2.47
2022-11-15T15:19:00.110Z,2.60
2022-11-15T15:21:37.163Z,2.25
2022-11-15T15:24:06.269Z,2.70
2022-11-15T15:26:38.704Z,2.50
2022-11-15T15:29:07.736Z,3.00
2022-11-15T15:31:36.604Z,2.45
2022-11-15T15:34:08.759Z,2.45
2022-11-15T15:36:40.341Z,2.50
2022-11-15T15:39:13.826Z,2.80
2022-11-15T15:44:10.981Z,2.15
2022-11-15T15:46:40.483Z,2.67
2022-11-15T15:49:12.052Z,2.47
2022-11-15T15:51:40.908Z,2.75
2022-11-15T15:54:09.630Z,2.47
2022-11-15T15:56:38.537Z,2.22
2022-11-15T15:59:07.491Z,2.35
2022-11-15T16:01:37.315Z,2.30
2022-11-15T16:04:06.313Z,2.42
2022-11-15T16:06:45.087Z,2.40
2022-11-15T16:09:18.318Z,2.38
2022-11-15T16:11:49.650Z,2.17
2022-11-15T16:14:21.626Z,2.45
2022-11-15T16:16:50.453Z,2.30
2022-11-15T16:19:18.640Z,2.13
2022-11-15T16:21:47.488Z,2.20
2022-11-15T16:24:16.349Z,2.40
2022-11-15T16:26:45.271Z,2.40
2022-11-15T16:29:14.344Z,2.25
2022-11-15T16:31:42.758Z,2.00
2022-11-15T16:34:11.807Z,2.50
2022-11-15T16:36:40.682Z,2.40
2022-11-15T16:39:11.522Z,2.58
2022-11-15T16:41:40.009Z,2.35
2022-11-15T16:44:08.896Z,2.33
2022-11-15T16:46:37.783Z,2.17
2022-11-15T16:49:06.303Z,2.35
2022-11-15T16:51:35.102Z,2.38
2022-11-15T16:54:03.997Z,2.53
2022-11-15T16:56:33.714Z,2.17
2022-11-15T16:59:03.422Z,2.45
2022-11-15T17:01:48.127Z,2.30
2022-11-15T17:04:18.036Z,2.30
2022-11-15T17:06:48.412Z,2.25
2022-11-15T17:09:22.145Z,2.50
2022-11-15T17:11:50.990Z,2.78
2022-11-15T17:14:19.999Z,2.30
2022-11-15T17:16:48.884Z,2.38
2022-11-15T17:19:19.607Z,2.33
2022-11-15T17:21:50.995Z,2.42
2022-11-15T17:24:22.337Z,2.30
2022-11-15T17:26:50.820Z,2.30
2022-11-15T17:29:20.094Z,2.58
2022-11-15T17:31:48.536Z,2.10
2022-11-15T17:34:17.762Z,2.45
2022-11-15T17:36:46.661Z,2.33
2022-11-15T17:39:15.467Z,2.25
2022-11-15T17:41:44.397Z,2.42
2022-11-15T17:44:12.961Z,2.28
2022-11-15T17:46:41.944Z,2.03
2022-11-15T17:49:10.886Z,2.03
2022-11-15T17:51:39.353Z,2.10
2022-11-15T17:54:08.361Z,2.30
2022-11-15T17:56:41.806Z,2.00
2022-11-15T17:59:14.758Z,2.25
2022-11-15T18:01:46.174Z,2.13
2022-11-15T18:04:19.490Z,2.38
2022-11-15T18:06:48.697Z,2.15
2022-11-15T18:09:17.211Z,2.30
2022-11-15T18:11:52.036Z,2.15
2022-11-15T18:14:21.336Z,2.13
2022-11-15T18:16:50.239Z,2.53
2022-11-15T18:19:19.097Z,2.35
2022-11-15T18:22:05.771Z,2.25
2022-11-15T18:24:36.679Z,2.00
2022-11-15T18:27:06.819Z,2.50
2022-11-15T18:29:39.137Z,2.17
2022-11-15T18:32:13.788Z,2.20
2022-11-15T18:34:43.200Z,2.13
2022-11-15T18:37:12.284Z,2.45
2022-11-15T18:39:42.183Z,2.33
2022-11-15T18:42:11.106Z,2.30
2022-11-15T18:44:39.951Z,2.30
2022-11-15T18:47:08.794Z,2.60
2022-11-15T18:49:37.696Z,2.15
2022-11-15T18:52:06.667Z,2.50
2022-11-15T18:54:35.516Z,2.30
2022-11-15T18:57:04.380Z,2.22
2022-11-15T18:59:33.562Z,2.20
2022-11-15T19:02:02.428Z,2.20
2022-11-15T19:04:31.408Z,2.30
2022-11-15T19:07:00.303Z,2.90
2022-11-15T19:09:34.053Z,2.30
2022-11-15T19:12:02.994Z,2.30
2022-11-15T19:14:31.923Z,2.42
2022-11-15T19:17:00.795Z,2.25
2022-11-15T19:19:29.943Z,2.00
2022-11-15T19:21:59.180Z,2.50
2022-11-15T19:24:28.765Z,2.33
2022-11-15T19:26:57.744Z,2.40
2022-11-15T19:29:26.513Z,2.50
2022-11-15T19:31:55.384Z,2.25
2022-11-15T19:34:24.190Z,2.20
2022-11-15T19:36:53.047Z,2.45
2022-11-15T19:39:22.025Z,2.50
2022-11-15T19:41:51.544Z,2.45
2022-11-15T19:44:21.277Z,2.22
2022-11-15T19:46:49.931Z,2.78
2022-11-15T19:49:18.773Z,2.53
2022-11-15T19:51:49.948Z,2.20
2022-11-15T19:54:19.071Z,2.35
2022-11-15T19:56:48.270Z,2.75
2022-11-15T19:59:18.736Z,2.70
2022-11-15T20:01:47.699Z,2.22
2022-11-15T20:04:16.099Z,2.50
2022-11-15T20:06:45.386Z,2.25
2022-11-15T20:09:15.853Z,2.72
2022-11-15T20:11:45.108Z,2.40
2022-11-15T20:14:14.554Z,2.60
2022-11-15T20:16:43.507Z,2.17
2022-11-15T20:19:13.451Z,2.40
2022-11-15T20:21:42.328Z,2.35
2022-11-15T20:24:11.226Z,2.25
2022-11-15T20:26:40.763Z,2.40
2022-11-15T20:29:11.062Z,2.25
2022-11-15T20:31:39.995Z,2.10
2022-11-15T20:34:08.983Z,2.00
2022-11-15T20:36:37.368Z,2.20
2022-11-15T20:39:06.452Z,2.03
2022-11-15T20:41:35.275Z,2.30
2022-11-15T20:44:05.510Z,1.95
2022-11-15T20:46:34.459Z,1.98
2022-11-15T20:49:02.872Z,2.00
2022-11-15T20:51:31.670Z,1.83
2022-11-15T20:54:00.552Z,2.00
2022-11-15T20:56:29.642Z,1.83
2022-11-15T20:58:58.442Z,2.00
2022-11-15T21:01:27.533Z,1.88
2022-11-15T21:03:57.239Z,2.10
2022-11-15T21:06:28.439Z,2.20
2022-11-15T21:09:16.055Z,2.22
2022-11-15T21:12:03.440Z,1.80
2022-11-15T21:14:32.271Z,2.25
2022-11-15T21:17:01.073Z,2.00
2022-11-15T21:19:35.604Z,2.08
2022-11-15T21:22:06.788Z,2.40
2022-11-15T21:24:36.037Z,2.22
2022-11-15T21:27:05.181Z,2.17
2022-11-15T21:29:40.574Z,2.40
2022-11-15T21:32:12.248Z,2.40
2022-11-15T21:34:41.143Z,2.17
2022-11-15T21:37:11.999Z,1.95
2022-11-15T21:39:41.238Z,2.20
2022-11-15T21:42:10.166Z,2.33
2022-11-15T21:44:39.069Z,2.42
2022-11-15T21:47:08.051Z,2.10
2022-11-15T21:49:36.925Z,1.80
2022-11-15T21:52:05.921Z,2.15
2022-11-15T21:54:34.848Z,2.25
2022-11-15T21:57:04.427Z,2.25
2022-11-15T21:59:32.782Z,2.30
2022-11-15T22:02:16.322Z,2.20
2022-11-15T22:04:45.142Z,2.13
2022-11-15T22:07:14.014Z,2.30
2022-11-15T22:09:43.016Z,2.10
2022-11-15T22:12:12.814Z,2.25
2022-11-15T22:14:41.273Z,2.40
2022-11-15T22:17:10.099Z,2.63
2022-11-15T22:19:51.765Z,2.28
2022-11-15T22:22:21.378Z,1.90
2022-11-15T22:24:49.813Z,2.28
2022-11-15T22:27:18.746Z,2.30
2022-11-15T22:29:47.614Z,2.13
2022-11-15T22:32:15.926Z,2.00
2022-11-15T22:34:45.804Z,2.17
2022-11-15T22:37:20.581Z,2.10
2022-11-15T22:39:49.356Z,2.22
2022-11-15T22:42:22.297Z,1.98
2022-11-15T22:44:52.467Z,2.03
2022-11-15T22:47:20.807Z,2.17
2022-11-15T22:49:49.722Z,2.03
2022-11-15T22:52:18.470Z,1.92
2022-11-15T22:54:47.331Z,2.20
2022-11-15T22:57:16.953Z,1.90
2022-11-15T22:59:45.839Z,1.80
2022-11-15T23:02:14.573Z,2.00
2022-11-15T23:04:43.574Z,2.20
2022-11-15T23:07:12.072Z,1.73
2022-11-15T23:09:40.925Z,1.90
2022-11-15T23:12:30.174Z,2.30
2022-11-15T23:15:02.101Z,1.75
2022-11-15T23:17:30.781Z,2.00
2022-11-15T23:20:11.173Z,1.98
2022-11-15T23:22:49.600Z,2.20
2022-11-15T23:25:18.497Z,2.00
2022-11-15T23:27:47.332Z,1.90
2022-11-15T23:30:34.454Z,2.13
2022-11-15T23:33:21.331Z,2.10
2022-11-15T23:35:59.618Z,2.00
2022-11-15T23:38:27.986Z,2.10
2022-11-15T23:41:00.616Z,2.05
2022-11-15T23:43:29.587Z,1.90
2022-11-15T23:45:58.042Z,1.90
2022-11-15T23:48:26.622Z,2.10
2022-11-15T23:50:55.919Z,2.35
2022-11-15T23:53:25.116Z,2.40
2022-11-15T23:56:03.369Z,2.08
2022-11-15T23:58:33.130Z,2.05
